Thai Dawn — V7EO6 — position and weather

sailwx.info

Track history (hours):
 
Tides and Currents Weather Stations Pressure Air Temp Water Temp Dewpoint Dewpoint Depression Visibility Wind Speed Wind Dir Waves Ship Positions

Thai Dawn

Last reported at 2017-Apr-08 10:47 UTC. Time now 2017-Apr-28 13:57 UTC.
Position N 49°43' W 006°13'.
Warning: this ship's position is 20 days out of date.

Length 169 m; draft 6.1 m.

Type: Cargo ship. MMSI: 538001841.

Date/timePositionNaut miles runAvg speedWind from/ knotsBaromVisibWave heightAir tempDewpointWater temp
2017-Apr-08 10:47N 49°43' W 006°13'4214.4
2017-Apr-08 07:52N 49°43' W 005°08'1214.2
2017-Apr-08 07:00N 49°44' W 004°49'713.8
2017-Apr-08 06:31N 49°46' W 004°38'713.5
2017-Apr-08 06:00N 49°47' W 004°28'813.2
2017-Apr-08 05:23N 49°49' W 004°16'512.9
2017-Apr-08 05:00N 49°50' W 004°09'612.7
2017-Apr-08 04:31N 49°52' W 003°59'612.6
2017-Apr-08 04:00N 49°53' W 003°49'612.5
2017-Apr-08 03:30N 49°53' W 003°40'1913.0
2017-Apr-08 02:03N 49°56' W 003°10'113.6
2017-Apr-08 01:57N 49°56' W 003°09'613.9
2017-Apr-08 01:31N 49°59' W 002°60'914.7
2017-Apr-08 00:56N 50°01' W 002°47'2215.8
2017-Apr-07 23:31N 50°07' W 002°14'015.8
2017-Apr-07 23:30N 50°07' W 002°13'816.5
2017-Apr-07 23:00N 50°09' W 002°01'816.2
2017-Apr-07 22:31N 50°11' W 001°49'815.6
2017-Apr-07 22:01N 50°13' W 001°37'714.8
2017-Apr-07 21:31N 50°15' W 001°26'714.1
2017-Apr-07 21:00N 50°16' W 001°15'713.3
2017-Apr-07 20:27N 50°18' W 001°04'612.5
2017-Apr-07 20:00N 50°20' W 000°55'611.8
2017-Apr-07 19:31N 50°22' W 000°47'611.4
2017-Apr-07 19:00N 50°24' W 000°38'611.3
2017-Apr-07 18:30N 50°25' W 000°30'611.4
2017-Apr-07 18:00N 50°27' W 000°21'611.7
2017-Apr-07 17:30N 50°28' W 000°12'612.1
2017-Apr-07 17:00N 50°30' W 000°03'612.5
2017-Apr-07 16:31N 50°32' E 000°06'713.1
2017-Apr-07 16:00N 50°34' E 000°16'713.8
2017-Apr-07 15:30N 50°35' E 000°27'714.2
2017-Apr-07 15:00N 50°38' E 000°37'1514.7
2017-Apr-07 14:00N 50°47' E 000°55'714.5
2017-Apr-07 13:31N 50°51' E 001°04'714.2
2017-Apr-07 13:01N 50°56' E 001°13'714.1
2017-Apr-07 12:30N 51°01' E 001°21'713.5
2017-Apr-07 12:01N 51°05' E 001°29'713.1
2017-Apr-07 11:31N 51°09' E 001°38'612.8
2017-Apr-07 11:00N 51°13' E 001°45'612.7
2017-Apr-07 10:30N 51°19' E 001°51'612.8
2017-Apr-07 10:01N 51°24' E 001°56'613.0
2017-Apr-07 09:31N 51°29' E 002°03'613.0
2017-Apr-07 09:01N 51°34' E 002°10'713.4
2017-Apr-07 08:30N 51°39' E 002°17'713.4
2017-Apr-07 07:58N 51°45' E 002°24'814.3
2017-Apr-07 07:26N 51°51' E 002°32'614.6
2017-Apr-07 06:59N 51°55' E 002°39'714.7
2017-Apr-07 06:30N 52°01' E 002°46'713.6
2017-Apr-07 06:00N 52°02' E 002°57'714.0
2017-Apr-07 05:30N 52°03' E 003°09'814.2
2017-Apr-07 04:57N 52°04' E 003°21'713.5
2017-Apr-07 04:29N 52°03' E 003°32'713.6
2017-Apr-07 03:59N 52°03' E 003°43'612.7
2017-Apr-07 03:30N 52°03' E 003°52'4 7.8
2017-Apr-07 03:00N 52°01' E 003°58'611.9
2017-Apr-07 02:30N 51°59' E 004°07'611.1
2017-Apr-07 02:00N 51°55' E 004°14'4 8.7
2017-Apr-07 01:30N 51°54' E 004°21'1 2.0
2017-Apr-07 01:00N 51°54' E 004°22'0 0.0
2017-Apr-07 00:30N 51°54' E 004°22'0 0.0
2017-Apr-07 00:00N 51°54' E 004°22'0 0.0
2017-Apr-06 23:30N 51°54' E 004°22'0 0.0
2017-Apr-06 23:00N 51°54' E 004°22'0 0.0
2017-Apr-06 22:30N 51°54' E 004°22'0 0.0
2017-Apr-06 22:00N 51°54' E 004°22'0 0.0
2017-Apr-06 21:30N 51°54' E 004°22'0 0.0
2017-Apr-06 21:00N 51°54' E 004°22'0 0.0
2017-Apr-06 20:30N 51°54' E 004°22'0 0.0
2017-Apr-06 20:00N 51°54' E 004°22'0 0.0
2017-Apr-06 19:30N 51°54' E 004°22'0 0.0
2017-Apr-06 19:00N 51°54' E 004°22'0 0.0
2017-Apr-06 18:30N 51°54' E 004°22'0 0.0
2017-Apr-06 18:00N 51°54' E 004°22'0 0.0
2017-Apr-06 17:30N 51°54' E 004°22'0 0.0
2017-Apr-06 17:00N 51°54' E 004°22'0 0.0
2017-Apr-06 16:30N 51°54' E 004°22'0 0.0
2017-Apr-06 16:00N 51°54' E 004°22'0 0.0
2017-Apr-06 15:30N 51°54' E 004°22'0 0.0
2017-Apr-06 15:00N 51°54' E 004°22'0 0.0
2017-Apr-06 14:30N 51°54' E 004°22'0 0.0
2017-Apr-06 13:30N 51°54' E 004°22'0 0.0
2017-Apr-06 13:00N 51°54' E 004°22'0 0.0
2017-Apr-06 12:30N 51°54' E 004°22'0 0.0
2017-Apr-06 12:00N 51°54' E 004°22'0 0.0
2017-Apr-06 11:30N 51°54' E 004°22'0 0.0
2017-Apr-06 11:00N 51°54' E 004°22'0 0.0
2017-Apr-06 10:30N 51°54' E 004°22'0 0.0
2017-Apr-06 10:00N 51°54' E 004°22'0 0.0
2017-Apr-06 09:30N 51°54' E 004°22'0 0.0
2017-Apr-06 09:00N 51°54' E 004°22'0 0.0
2017-Apr-06 08:30N 51°54' E 004°22'0 0.0
2017-Apr-06 08:00N 51°54' E 004°22'0 0.0
2017-Apr-06 07:30N 51°54' E 004°22'0 0.0
2017-Apr-06 07:00N 51°54' E 004°22'0 0.0
2017-Apr-06 06:28N 51°54' E 004°22'0 0.0
2017-Apr-06 06:00N 51°54' E 004°22'0 0.0
2017-Apr-06 05:30N 51°54' E 004°22'0 0.0
2017-Apr-06 05:00N 51°54' E 004°22'0 0.0
2017-Apr-06 04:30N 51°54' E 004°22'0 0.0
2017-Apr-06 04:00N 51°54' E 004°22'0 0.0
2017-Apr-06 03:30N 51°54' E 004°22'0 0.0
2017-Apr-06 03:00N 51°54' E 004°22'0 0.0
2017-Apr-06 02:30N 51°54' E 004°22'0 0.0
2017-Apr-06 02:00N 51°54' E 004°22'0 0.0
2017-Apr-06 01:30N 51°54' E 004°22'0 0.0
2017-Apr-06 01:00N 51°54' E 004°22'0 0.0
2017-Apr-06 00:30N 51°54' E 004°22'0 0.0
2017-Apr-06 00:00N 51°54' E 004°22'0 0.0
2017-Apr-05 23:30N 51°54' E 004°22'0 0.0
2017-Apr-05 23:00N 51°54' E 004°22'0 0.0
2017-Apr-05 22:30N 51°54' E 004°22'0 0.0
2017-Apr-05 22:00N 51°54' E 004°22'0 0.0
2017-Apr-05 21:30N 51°54' E 004°22'0 0.0
2017-Apr-05 21:00N 51°54' E 004°22'0 0.0
2017-Apr-05 20:30N 51°54' E 004°22'0 0.0
2017-Apr-05 20:00N 51°54' E 004°22'0 0.0
2017-Apr-05 19:30N 51°54' E 004°22'0 0.0
2017-Apr-05 19:00N 51°54' E 004°22'0 0.0
2017-Apr-05 18:30N 51°54' E 004°22'0 0.0
2017-Apr-05 18:00N 51°54' E 004°22'0 0.0
2017-Apr-05 17:30N 51°54' E 004°22'0 0.0
2017-Apr-05 17:00N 51°54' E 004°22'0 0.0
2017-Apr-05 16:30N 51°54' E 004°22'0 0.0
2017-Apr-05 16:00N 51°54' E 004°22'0 0.0
2017-Apr-05 15:30N 51°54' E 004°22'0 0.0
2017-Apr-05 15:00N 51°54' E 004°22'0 0.0
2017-Apr-05 14:30N 51°54' E 004°22'0 0.0
2017-Apr-05 13:30N 51°54' E 004°22'0 0.0
2017-Apr-05 13:00N 51°54' E 004°22'0 0.0
2017-Apr-05 12:30N 51°54' E 004°22'0 0.0
2017-Apr-05 12:00N 51°54' E 004°22'0 0.0
2017-Apr-05 11:30N 51°54' E 004°22'0 0.0
2017-Apr-05 11:00N 51°54' E 004°22'0 0.0
2017-Apr-05 10:30N 51°54' E 004°22'0 0.0
2017-Apr-05 10:00N 51°54' E 004°22'0 0.0
2017-Apr-05 09:27N 51°54' E 004°22'0 0.0
2017-Apr-05 09:00N 51°54' E 004°22'0 0.0
2017-Apr-05 08:30N 51°54' E 004°22'0 0.0
2017-Apr-05 08:00N 51°54' E 004°22'0 0.0
2017-Apr-05 07:30N 51°54' E 004°22'0 0.0
2017-Apr-05 07:00N 51°54' E 004°22'0 0.0
2017-Apr-05 06:30N 51°54' E 004°22'0 0.0
2017-Apr-05 06:00N 51°54' E 004°22'0 0.0
2017-Apr-05 05:30N 51°54' E 004°22'0 0.0
2017-Apr-05 05:00N 51°54' E 004°22'0 0.0
2017-Apr-05 04:30N 51°54' E 004°22'0 0.0
2017-Apr-05 04:00N 51°54' E 004°22'0 0.0
2017-Apr-05 03:27N 51°54' E 004°22'0 0.0
2017-Apr-05 03:00N 51°54' E 004°22'0 0.0
2017-Apr-05 02:30N 51°54' E 004°22'0 0.0
2017-Apr-05 02:00N 51°54' E 004°22'0 0.0
2017-Apr-05 01:30N 51°54' E 004°22'0 0.0
2017-Apr-05 01:00N 51°54' E 004°22'0 0.0
2017-Apr-05 00:30N 51°54' E 004°22'0 0.0
2017-Apr-05 00:00N 51°54' E 004°22'0 0.0
2017-Apr-04 23:30N 51°54' E 004°22'0 0.0
2017-Apr-04 23:00N 51°54' E 004°22'0 0.0
2017-Apr-04 22:30N 51°54' E 004°22'0 0.0
2017-Apr-04 22:00N 51°54' E 004°22'0 0.0
2017-Apr-04 21:27N 51°54' E 004°22'0 0.0
2017-Apr-04 21:00N 51°54' E 004°22'0 0.0
2017-Apr-04 20:30N 51°54' E 004°22'0 0.0
2017-Apr-04 19:57N 51°54' E 004°22'0 0.0
2017-Apr-04 19:30N 51°54' E 004°22'0 0.0
2017-Apr-04 19:00N 51°54' E 004°22'0 0.0
2017-Apr-04 18:30N 51°54' E 004°22'0 0.0
2017-Apr-04 18:00N 51°54' E 004°22'0 0.0
2017-Apr-04 17:30N 51°54' E 004°22'0 0.0
2017-Apr-04 17:00N 51°54' E 004°22'0 0.0
2017-Apr-04 16:30N 51°54' E 004°22'0 0.0
2017-Apr-04 16:00N 51°54' E 004°22'0 0.0
2017-Apr-04 15:30N 51°54' E 004°22'0 0.0
2017-Apr-04 15:00N 51°54' E 004°22'0 0.0
2017-Apr-04 14:30N 51°54' E 004°22'0 0.0
2017-Apr-04 13:30N 51°54' E 004°22'0 0.0
2017-Apr-04 13:00N 51°54' E 004°22'0 0.0
2017-Apr-04 12:30N 51°54' E 004°22'0 0.0
2017-Apr-04 12:00N 51°54' E 004°22'0 0.0
2017-Apr-04 11:30N 51°54' E 004°22'0 0.0
2017-Apr-04 11:00N 51°54' E 004°22'0 0.0
2017-Apr-04 10:30N 51°54' E 004°22'0 0.0
2017-Apr-04 10:00N 51°54' E 004°22'0 0.0
2017-Apr-04 09:30N 51°54' E 004°22'0 0.0
2017-Apr-04 09:00N 51°54' E 004°22'0 0.8
2017-Apr-04 08:30N 51°54' E 004°22'2 4.8
2017-Apr-04 08:00N 51°54' E 004°18'3 6.4
2017-Apr-04 07:30N 51°56' E 004°13'4 7.1
2017-Apr-04 07:00N 51°58' E 004°09'4 7.5
2017-Apr-04 06:30N 51°59' E 004°03'4 7.9
2017-Apr-04 06:00N 51°60' E 003°57'4 7.5
2017-Apr-04 05:30N 51°60' E 003°51'3 6.2
2017-Apr-04 05:00N 51°60' E 003°46'3 5.7
2017-Apr-04 04:30N 52°00' E 003°41'3 5.9
2017-Apr-04 04:00N 52°03' E 003°38'4 7.9
2017-Apr-04 03:30N 52°06' E 003°34'4 8.0
2017-Apr-04 03:00N 52°07' E 003°28'4 7.7
2017-Apr-04 02:30N 52°09' E 003°23'4 8.8
2017-Apr-04 02:00N 52°13' E 003°20'5 9.2
2017-Apr-04 01:30N 52°18' E 003°17'20 8.8
2017-Apr-03 23:14N 52°37' E 003°06'3 8.2
2017-Apr-03 22:48N 52°40' E 003°04'1512.3
2017-Apr-03 21:33N 52°54' E 002°56'112.4
2017-Apr-03 21:30N 52°55' E 002°55'612.1
2017-Apr-03 21:00N 53°00' E 002°52'611.9
2017-Apr-03 20:30N 53°06' E 002°48'611.8
2017-Apr-03 20:00N 53°12' E 002°45'611.8
2017-Apr-03 19:30N 53°17' E 002°41'611.7
2017-Apr-03 19:00N 53°23' E 002°37'611.7
2017-Apr-03 18:30N 53°28' E 002°33'2512.9
2017-Apr-03 16:32N 53°45' E 002°02'013.3
2017-Apr-03 16:30N 53°46' E 002°01'713.5
2017-Apr-03 16:00N 53°49' E 001°52'3814.0
2017-Apr-03 13:17N 54°09' E 000°57'514.1
2017-Apr-03 12:54N 54°12' E 000°49'614.1
2017-Apr-03 12:30N 54°14' E 000°40'714.0
2017-Apr-03 12:00N 54°18' E 000°30'713.9
2017-Apr-03 11:30N 54°21' E 000°20'713.8
2017-Apr-03 11:00N 54°25' E 000°09'714.1
2017-Apr-03 10:31N 54°28' W 000°01'714.3
2017-Apr-03 10:01N 54°32' W 000°12'714.3
2017-Apr-03 09:31N 54°36' W 000°22'  
Track history (hours):
 
Tides and Currents Weather Stations Pressure Air Temp Water Temp Dewpoint Dewpoint Depression Visibility Wind Speed Wind Dir Waves Ship Positions

Thai Dawn

Last reported at 2017-Apr-08 10:47 UTC. Time now 2017-Apr-28 13:57 UTC.
Position N 49°43' W 006°13'.
Warning: this ship's position is 20 days out of date.

Length 169 m; draft 6.1 m.

Type: Cargo ship. MMSI: 538001841.

Date/timePositionNaut miles runAvg speedWind from/ knotsBaromVisibWave heightAir tempDewpointWater temp
2017-Apr-08 10:47N 49°43' W 006°13'4214.4
2017-Apr-08 07:52N 49°43' W 005°08'1214.2
2017-Apr-08 07:00N 49°44' W 004°49'713.8
2017-Apr-08 06:31N 49°46' W 004°38'713.5
2017-Apr-08 06:00N 49°47' W 004°28'813.2
2017-Apr-08 05:23N 49°49' W 004°16'512.9
2017-Apr-08 05:00N 49°50' W 004°09'612.7
2017-Apr-08 04:31N 49°52' W 003°59'612.6
2017-Apr-08 04:00N 49°53' W 003°49'612.5
2017-Apr-08 03:30N 49°53' W 003°40'1913.0
2017-Apr-08 02:03N 49°56' W 003°10'113.6
2017-Apr-08 01:57N 49°56' W 003°09'613.9
2017-Apr-08 01:31N 49°59' W 002°60'914.7
2017-Apr-08 00:56N 50°01' W 002°47'2215.8
2017-Apr-07 23:31N 50°07' W 002°14'015.8
2017-Apr-07 23:30N 50°07' W 002°13'816.5
2017-Apr-07 23:00N 50°09' W 002°01'816.2
2017-Apr-07 22:31N 50°11' W 001°49'815.6
2017-Apr-07 22:01N 50°13' W 001°37'714.8
2017-Apr-07 21:31N 50°15' W 001°26'714.1
2017-Apr-07 21:00N 50°16' W 001°15'713.3
2017-Apr-07 20:27N 50°18' W 001°04'612.5
2017-Apr-07 20:00N 50°20' W 000°55'611.8
2017-Apr-07 19:31N 50°22' W 000°47'611.4
2017-Apr-07 19:00N 50°24' W 000°38'611.3
2017-Apr-07 18:30N 50°25' W 000°30'611.4
2017-Apr-07 18:00N 50°27' W 000°21'611.7
2017-Apr-07 17:30N 50°28' W 000°12'612.1
2017-Apr-07 17:00N 50°30' W 000°03'612.5
2017-Apr-07 16:31N 50°32' E 000°06'713.1
2017-Apr-07 16:00N 50°34' E 000°16'713.8
2017-Apr-07 15:30N 50°35' E 000°27'714.2
2017-Apr-07 15:00N 50°38' E 000°37'1514.7
2017-Apr-07 14:00N 50°47' E 000°55'714.5
2017-Apr-07 13:31N 50°51' E 001°04'714.2
2017-Apr-07 13:01N 50°56' E 001°13'714.1
2017-Apr-07 12:30N 51°01' E 001°21'713.5
2017-Apr-07 12:01N 51°05' E 001°29'713.1
2017-Apr-07 11:31N 51°09' E 001°38'612.8
2017-Apr-07 11:00N 51°13' E 001°45'612.7
2017-Apr-07 10:30N 51°19' E 001°51'612.8
2017-Apr-07 10:01N 51°24' E 001°56'613.0
2017-Apr-07 09:31N 51°29' E 002°03'613.0
2017-Apr-07 09:01N 51°34' E 002°10'713.4
2017-Apr-07 08:30N 51°39' E 002°17'713.4
2017-Apr-07 07:58N 51°45' E 002°24'814.3
2017-Apr-07 07:26N 51°51' E 002°32'614.6
2017-Apr-07 06:59N 51°55' E 002°39'714.7
2017-Apr-07 06:30N 52°01' E 002°46'713.6
2017-Apr-07 06:00N 52°02' E 002°57'714.0
2017-Apr-07 05:30N 52°03' E 003°09'814.2
2017-Apr-07 04:57N 52°04' E 003°21'713.5
2017-Apr-07 04:29N 52°03' E 003°32'713.6
2017-Apr-07 03:59N 52°03' E 003°43'612.7
2017-Apr-07 03:30N 52°03' E 003°52'4 7.8
2017-Apr-07 03:00N 52°01' E 003°58'611.9
2017-Apr-07 02:30N 51°59' E 004°07'611.1
2017-Apr-07 02:00N 51°55' E 004°14'4 8.7
2017-Apr-07 01:30N 51°54' E 004°21'1 2.0
2017-Apr-07 01:00N 51°54' E 004°22'0 0.0
2017-Apr-07 00:30N 51°54' E 004°22'0 0.0
2017-Apr-07 00:00N 51°54' E 004°22'0 0.0
2017-Apr-06 23:30N 51°54' E 004°22'0 0.0
2017-Apr-06 23:00N 51°54' E 004°22'0 0.0
2017-Apr-06 22:30N 51°54' E 004°22'0 0.0
2017-Apr-06 22:00N 51°54' E 004°22'0 0.0
2017-Apr-06 21:30N 51°54' E 004°22'0 0.0
2017-Apr-06 21:00N 51°54' E 004°22'0 0.0
2017-Apr-06 20:30N 51°54' E 004°22'0 0.0
2017-Apr-06 20:00N 51°54' E 004°22'0 0.0
2017-Apr-06 19:30N 51°54' E 004°22'0 0.0
2017-Apr-06 19:00N 51°54' E 004°22'0 0.0
2017-Apr-06 18:30N 51°54' E 004°22'0 0.0
2017-Apr-06 18:00N 51°54' E 004°22'0 0.0
2017-Apr-06 17:30N 51°54' E 004°22'0 0.0
2017-Apr-06 17:00N 51°54' E 004°22'0 0.0
2017-Apr-06 16:30N 51°54' E 004°22'0 0.0
2017-Apr-06 16:00N 51°54' E 004°22'0 0.0
2017-Apr-06 15:30N 51°54' E 004°22'0 0.0
2017-Apr-06 15:00N 51°54' E 004°22'0 0.0
2017-Apr-06 14:30N 51°54' E 004°22'0 0.0
2017-Apr-06 13:30N 51°54' E 004°22'0 0.0
2017-Apr-06 13:00N 51°54' E 004°22'0 0.0
2017-Apr-06 12:30N 51°54' E 004°22'0 0.0
2017-Apr-06 12:00N 51°54' E 004°22'0 0.0
2017-Apr-06 11:30N 51°54' E 004°22'0 0.0
2017-Apr-06 11:00N 51°54' E 004°22'0 0.0
2017-Apr-06 10:30N 51°54' E 004°22'0 0.0
2017-Apr-06 10:00N 51°54' E 004°22'0 0.0
2017-Apr-06 09:30N 51°54' E 004°22'0 0.0
2017-Apr-06 09:00N 51°54' E 004°22'0 0.0
2017-Apr-06 08:30N 51°54' E 004°22'0 0.0
2017-Apr-06 08:00N 51°54' E 004°22'0 0.0
2017-Apr-06 07:30N 51°54' E 004°22'0 0.0
2017-Apr-06 07:00N 51°54' E 004°22'0 0.0
2017-Apr-06 06:28N 51°54' E 004°22'0 0.0
2017-Apr-06 06:00N 51°54' E 004°22'0 0.0
2017-Apr-06 05:30N 51°54' E 004°22'0 0.0
2017-Apr-06 05:00N 51°54' E 004°22'0 0.0
2017-Apr-06 04:30N 51°54' E 004°22'0 0.0
2017-Apr-06 04:00N 51°54' E 004°22'0 0.0
2017-Apr-06 03:30N 51°54' E 004°22'0 0.0
2017-Apr-06 03:00N 51°54' E 004°22'0 0.0
2017-Apr-06 02:30N 51°54' E 004°22'0 0.0
2017-Apr-06 02:00N 51°54' E 004°22'0 0.0
2017-Apr-06 01:30N 51°54' E 004°22'0 0.0
2017-Apr-06 01:00N 51°54' E 004°22'0 0.0
2017-Apr-06 00:30N 51°54' E 004°22'0 0.0
2017-Apr-06 00:00N 51°54' E 004°22'0 0.0
2017-Apr-05 23:30N 51°54' E 004°22'0 0.0
2017-Apr-05 23:00N 51°54' E 004°22'0 0.0
2017-Apr-05 22:30N 51°54' E 004°22'0 0.0
2017-Apr-05 22:00N 51°54' E 004°22'0 0.0
2017-Apr-05 21:30N 51°54' E 004°22'0 0.0
2017-Apr-05 21:00N 51°54' E 004°22'0 0.0
2017-Apr-05 20:30N 51°54' E 004°22'0 0.0
2017-Apr-05 20:00N 51°54' E 004°22'0 0.0
2017-Apr-05 19:30N 51°54' E 004°22'0 0.0
2017-Apr-05 19:00N 51°54' E 004°22'0 0.0
2017-Apr-05 18:30N 51°54' E 004°22'0 0.0
2017-Apr-05 18:00N 51°54' E 004°22'0 0.0
2017-Apr-05 17:30N 51°54' E 004°22'0 0.0
2017-Apr-05 17:00N 51°54' E 004°22'0 0.0
2017-Apr-05 16:30N 51°54' E 004°22'0 0.0
2017-Apr-05 16:00N 51°54' E 004°22'0 0.0
2017-Apr-05 15:30N 51°54' E 004°22'0 0.0
2017-Apr-05 15:00N 51°54' E 004°22'0 0.0
2017-Apr-05 14:30N 51°54' E 004°22'0 0.0
2017-Apr-05 13:30N 51°54' E 004°22'0 0.0
2017-Apr-05 13:00N 51°54' E 004°22'0 0.0
2017-Apr-05 12:30N 51°54' E 004°22'0 0.0
2017-Apr-05 12:00N 51°54' E 004°22'0 0.0
2017-Apr-05 11:30N 51°54' E 004°22'0 0.0
2017-Apr-05 11:00N 51°54' E 004°22'0 0.0
2017-Apr-05 10:30N 51°54' E 004°22'0 0.0
2017-Apr-05 10:00N 51°54' E 004°22'0 0.0
2017-Apr-05 09:27N 51°54' E 004°22'0 0.0
2017-Apr-05 09:00N 51°54' E 004°22'0 0.0
2017-Apr-05 08:30N 51°54' E 004°22'0 0.0
2017-Apr-05 08:00N 51°54' E 004°22'0 0.0
2017-Apr-05 07:30N 51°54' E 004°22'0 0.0
2017-Apr-05 07:00N 51°54' E 004°22'0 0.0
2017-Apr-05 06:30N 51°54' E 004°22'0 0.0
2017-Apr-05 06:00N 51°54' E 004°22'0 0.0
2017-Apr-05 05:30N 51°54' E 004°22'0 0.0
2017-Apr-05 05:00N 51°54' E 004°22'0 0.0
2017-Apr-05 04:30N 51°54' E 004°22'0 0.0
2017-Apr-05 04:00N 51°54' E 004°22'0 0.0
2017-Apr-05 03:27N 51°54' E 004°22'0 0.0
2017-Apr-05 03:00N 51°54' E 004°22'0 0.0
2017-Apr-05 02:30N 51°54' E 004°22'0 0.0
2017-Apr-05 02:00N 51°54' E 004°22'0 0.0
2017-Apr-05 01:30N 51°54' E 004°22'0 0.0
2017-Apr-05 01:00N 51°54' E 004°22'0 0.0
2017-Apr-05 00:30N 51°54' E 004°22'0 0.0
2017-Apr-05 00:00N 51°54' E 004°22'0 0.0
2017-Apr-04 23:30N 51°54' E 004°22'0 0.0
2017-Apr-04 23:00N 51°54' E 004°22'0 0.0
2017-Apr-04 22:30N 51°54' E 004°22'0 0.0
2017-Apr-04 22:00N 51°54' E 004°22'0 0.0
2017-Apr-04 21:27N 51°54' E 004°22'0 0.0
2017-Apr-04 21:00N 51°54' E 004°22'0 0.0
2017-Apr-04 20:30N 51°54' E 004°22'0 0.0
2017-Apr-04 19:57N 51°54' E 004°22'0 0.0
2017-Apr-04 19:30N 51°54' E 004°22'0 0.0
2017-Apr-04 19:00N 51°54' E 004°22'0 0.0
2017-Apr-04 18:30N 51°54' E 004°22'0 0.0
2017-Apr-04 18:00N 51°54' E 004°22'0 0.0
2017-Apr-04 17:30N 51°54' E 004°22'0 0.0
2017-Apr-04 17:00N 51°54' E 004°22'0 0.0
2017-Apr-04 16:30N 51°54' E 004°22'0 0.0
2017-Apr-04 16:00N 51°54' E 004°22'0 0.0
2017-Apr-04 15:30N 51°54' E 004°22'0 0.0
2017-Apr-04 15:00N 51°54' E 004°22'0 0.0
2017-Apr-04 14:30N 51°54' E 004°22'0 0.0
2017-Apr-04 13:30N 51°54' E 004°22'0 0.0
2017-Apr-04 13:00N 51°54' E 004°22'0 0.0
2017-Apr-04 12:30N 51°54' E 004°22'0 0.0
2017-Apr-04 12:00N 51°54' E 004°22'0 0.0
2017-Apr-04 11:30N 51°54' E 004°22'0 0.0
2017-Apr-04 11:00N 51°54' E 004°22'0 0.0
2017-Apr-04 10:30N 51°54' E 004°22'0 0.0
2017-Apr-04 10:00N 51°54' E 004°22'0 0.0
2017-Apr-04 09:30N 51°54' E 004°22'0 0.0
2017-Apr-04 09:00N 51°54' E 004°22'0 0.8
2017-Apr-04 08:30N 51°54' E 004°22'2 4.8
2017-Apr-04 08:00N 51°54' E 004°18'3 6.4
2017-Apr-04 07:30N 51°56' E 004°13'4 7.1
2017-Apr-04 07:00N 51°58' E 004°09'4 7.5
2017-Apr-04 06:30N 51°59' E 004°03'4 7.9
2017-Apr-04 06:00N 51°60' E 003°57'4 7.5
2017-Apr-04 05:30N 51°60' E 003°51'3 6.2
2017-Apr-04 05:00N 51°60' E 003°46'3 5.7
2017-Apr-04 04:30N 52°00' E 003°41'3 5.9
2017-Apr-04 04:00N 52°03' E 003°38'4 7.9
2017-Apr-04 03:30N 52°06' E 003°34'4 8.0
2017-Apr-04 03:00N 52°07' E 003°28'4 7.7
2017-Apr-04 02:30N 52°09' E 003°23'4 8.8
2017-Apr-04 02:00N 52°13' E 003°20'5 9.2
2017-Apr-04 01:30N 52°18' E 003°17'20 8.8
2017-Apr-03 23:14N 52°37' E 003°06'3 8.2
2017-Apr-03 22:48N 52°40' E 003°04'1512.3
2017-Apr-03 21:33N 52°54' E 002°56'112.4
2017-Apr-03 21:30N 52°55' E 002°55'612.1
2017-Apr-03 21:00N 53°00' E 002°52'611.9
2017-Apr-03 20:30N 53°06' E 002°48'611.8
2017-Apr-03 20:00N 53°12' E 002°45'611.8
2017-Apr-03 19:30N 53°17' E 002°41'611.7
2017-Apr-03 19:00N 53°23' E 002°37'611.7
2017-Apr-03 18:30N 53°28' E 002°33'2512.9
2017-Apr-03 16:32N 53°45' E 002°02'013.3
2017-Apr-03 16:30N 53°46' E 002°01'713.5
2017-Apr-03 16:00N 53°49' E 001°52'3814.0
2017-Apr-03 13:17N 54°09' E 000°57'514.1
2017-Apr-03 12:54N 54°12' E 000°49'614.1
2017-Apr-03 12:30N 54°14' E 000°40'714.0
2017-Apr-03 12:00N 54°18' E 000°30'713.9
2017-Apr-03 11:30N 54°21' E 000°20'713.8
2017-Apr-03 11:00N 54°25' E 000°09'714.1
2017-Apr-03 10:31N 54°28' W 000°01'714.3
2017-Apr-03 10:01N 54°32' W 000°12'714.3
2017-Apr-03 09:31N 54°36' W 000°22'  

Dump ship's entire track history